createdAt,value
2022-08-09T00:00:11.265Z,14.80
2022-08-09T00:02:43.053Z,14.90
2022-08-09T00:06:17.559Z,14.90
2022-08-09T00:08:13.113Z,14.80
2022-08-09T00:10:58.591Z,14.80
2022-08-09T00:13:25.362Z,15.10
2022-08-09T00:16:00.084Z,14.90
2022-08-09T00:18:35.736Z,14.70
2022-08-09T00:21:07.820Z,14.60
2022-08-09T00:23:55.083Z,14.50
2022-08-09T00:26:29.788Z,14.40
2022-08-09T00:29:01.371Z,14.20
2022-08-09T00:31:57.532Z,14.20
2022-08-09T00:34:19.189Z,14.10
2022-08-09T00:36:47.222Z,14.20
2022-08-09T00:40:09.133Z,14.10
2022-08-09T00:44:19.480Z,14.00
2022-08-09T00:44:47.913Z,14.00
2022-08-09T00:47:15.770Z,13.90
2022-08-09T00:49:43.820Z,13.80
2022-08-09T00:52:22.948Z,13.70
2022-08-09T00:54:58.525Z,13.70
2022-08-09T00:57:35.233Z,13.60
2022-08-09T01:00:21.145Z,13.50
2022-08-09T01:03:03.738Z,13.50
2022-08-09T01:05:54.097Z,13.40
2022-08-09T01:08:31.787Z,13.40
2022-08-09T01:11:15.075Z,13.70
2022-08-09T01:13:58.735Z,13.70
2022-08-09T01:16:47.243Z,13.60
2022-08-09T01:19:51.778Z,13.60
2022-08-09T01:22:58.887Z,13.50
2022-08-09T01:25:41.854Z,13.40
2022-08-09T01:28:11.269Z,13.20
2022-08-09T01:30:51.809Z,13.30
2022-08-09T01:33:23.826Z,13.40
2022-08-09T01:35:55.992Z,13.50
2022-08-09T01:38:29.871Z,13.70
2022-08-09T01:41:05.654Z,13.70
2022-08-09T01:43:42.152Z,13.40
2022-08-09T01:46:25.126Z,13.30
2022-08-09T01:48:55.780Z,13.10
2022-08-09T01:51:26.185Z,12.90
2022-08-09T01:53:58.050Z,12.80
2022-08-09T01:56:27.167Z,12.70
2022-08-09T01:58:56.464Z,12.60
2022-08-09T02:01:30.608Z,12.80
2022-08-09T02:04:13.789Z,12.70
2022-08-09T02:07:02.716Z,12.60
2022-08-09T02:09:41.911Z,12.60
2022-08-09T02:12:13.392Z,12.60
2022-08-09T02:14:51.678Z,12.60
2022-08-09T02:18:00.683Z,12.70
2022-08-09T02:20:10.867Z,12.80
2022-08-09T02:22:51.354Z,12.80
2022-08-09T02:25:27.452Z,12.80
2022-08-09T02:28:03.618Z,12.90
2022-08-09T02:30:36.761Z,12.90
2022-08-09T02:33:07.766Z,12.90
2022-08-09T02:36:01.867Z,12.90
2022-08-09T02:38:31.566Z,13.00
2022-08-09T02:41:22.376Z,13.10
2022-08-09T02:43:54.558Z,13.00
2022-08-09T02:46:27.439Z,12.90
2022-08-09T02:48:58.792Z,13.00
2022-08-09T02:51:27.803Z,12.90
2022-08-09T02:54:02.923Z,12.80
2022-08-09T02:56:36.524Z,12.70
2022-08-09T02:59:06.907Z,12.60
2022-08-09T03:01:58.542Z,12.60
2022-08-09T03:04:28.791Z,12.40
2022-08-09T03:06:57.912Z,12.30
2022-08-09T03:09:27.978Z,12.30
2022-08-09T03:12:06.716Z,12.40
2022-08-09T03:14:40.135Z,12.30
2022-08-09T03:17:08.433Z,12.20
2022-08-09T03:19:58.593Z,12.10
2022-08-09T03:22:32.632Z,12.00
2022-08-09T03:25:06.415Z,12.00
2022-08-09T03:27:52.691Z,11.90
2022-08-09T03:30:30.221Z,11.80
2022-08-09T03:33:17.753Z,11.70
2022-08-09T03:36:13.314Z,11.60
2022-08-09T03:38:42.050Z,11.60
2022-08-09T03:41:15.334Z,11.60
2022-08-09T03:44:02.965Z,11.60
2022-08-09T03:46:31.339Z,11.50
2022-08-09T03:49:04.397Z,11.40
2022-08-09T03:51:55.510Z,11.50
2022-08-09T03:54:29.390Z,11.50
2022-08-09T03:56:59.269Z,11.60
2022-08-09T03:59:53.733Z,11.60
2022-08-09T04:02:14.334Z,11.60
2022-08-09T04:04:45.621Z,11.60
2022-08-09T04:07:15.955Z,11.60
2022-08-09T04:09:48.981Z,11.50
2022-08-09T04:12:44.644Z,11.40
2022-08-09T04:15:29.384Z,11.30
2022-08-09T04:18:00.606Z,11.40
2022-08-09T04:20:28.156Z,11.30
2022-08-09T04:22:56.254Z,11.30
2022-08-09T04:25:23.222Z,11.20
2022-08-09T04:27:50.310Z,11.20
2022-08-09T04:30:20.864Z,11.30
2022-08-09T04:32:50.518Z,11.40
2022-08-09T04:35:17.966Z,11.60
2022-08-09T04:37:49.930Z,11.70
2022-08-09T04:40:19.033Z,11.80
2022-08-09T04:42:56.758Z,12.00
2022-08-09T04:45:23.887Z,12.20
2022-08-09T04:48:00.956Z,12.30
2022-08-09T04:50:34.830Z,12.40
2022-08-09T04:53:11.627Z,12.40
2022-08-09T04:55:58.002Z,12.40
2022-08-09T04:58:32.809Z,12.40
2022-08-09T05:01:01.822Z,12.50
2022-08-09T05:03:42.734Z,12.70
2022-08-09T05:06:12.113Z,12.80
2022-08-09T05:09:00.382Z,13.00
2022-08-09T05:11:32.536Z,13.10
2022-08-09T05:14:06.204Z,13.30
2022-08-09T05:16:43.527Z,14.00
2022-08-09T05:19:24.449Z,16.10
2022-08-09T05:21:56.018Z,18.60
2022-08-09T05:24:24.731Z,20.70
2022-08-09T05:26:52.733Z,21.40
2022-08-09T05:29:21.099Z,22.60
2022-08-09T05:31:56.845Z,24.10
2022-08-09T05:34:30.774Z,25.30
2022-08-09T05:37:06.797Z,25.90
2022-08-09T05:39:43.775Z,26.70
2022-08-09T05:42:17.774Z,26.50
2022-08-09T05:44:53.571Z,26.50
2022-08-09T05:47:23.068Z,26.60
2022-08-09T05:50:25.593Z,27.20
2022-08-09T05:52:41.915Z,26.80
2022-08-09T05:55:12.869Z,27.30
2022-08-09T05:57:55.208Z,27.70
2022-08-09T06:00:25.914Z,28.00
2022-08-09T06:02:57.002Z,27.60
2022-08-09T06:05:31.336Z,27.60
2022-08-09T06:08:12.624Z,27.90
2022-08-09T06:10:39.523Z,28.30
2022-08-09T06:13:18.346Z,28.90
2022-08-09T06:15:46.860Z,29.60
2022-08-09T06:18:15.849Z,29.80
2022-08-09T06:20:49.837Z,29.30
2022-08-09T06:23:21.423Z,29.00
2022-08-09T06:25:49.848Z,29.30
2022-08-09T06:28:22.228Z,29.60
2022-08-09T06:30:54.349Z,30.40
2022-08-09T06:33:39.629Z,30.30
2022-08-09T06:36:08.841Z,29.30
2022-08-09T06:38:37.654Z,29.90
2022-08-09T06:41:12.455Z,28.70
2022-08-09T06:43:46.474Z,28.90
2022-08-09T06:46:39.960Z,29.70
2022-08-09T06:49:00.666Z,30.30
2022-08-09T06:51:28.154Z,30.90
2022-08-09T06:53:55.694Z,30.40
2022-08-09T06:56:30.684Z,29.90
2022-08-09T07:00:51.800Z,29.80
2022-08-09T07:01:54.805Z,30.20
2022-08-09T07:04:31.127Z,30.10
2022-08-09T07:06:59.955Z,30.20
2022-08-09T07:09:54.900Z,30.30
2022-08-09T07:12:18.168Z,31.00
2022-08-09T07:14:50.752Z,31.30
2022-08-09T07:17:19.667Z,31.00
2022-08-09T07:19:48.226Z,30.10
2022-08-09T07:22:18.749Z,30.80
2022-08-09T07:25:01.807Z,31.00
2022-08-09T07:27:34.502Z,31.10
2022-08-09T07:30:14.471Z,31.00
2022-08-09T07:32:42.224Z,31.00
2022-08-09T07:35:12.005Z,29.70
2022-08-09T07:37:44.509Z,30.10
2022-08-09T07:40:17.364Z,30.50
2022-08-09T07:42:54.720Z,30.30
2022-08-09T07:45:40.018Z,31.20
2022-08-09T07:48:25.544Z,31.20
2022-08-09T07:51:03.176Z,30.70
2022-08-09T07:54:05.022Z,30.80
2022-08-09T07:56:33.694Z,30.90
2022-08-09T07:59:00.815Z,31.10
2022-08-09T08:01:30.501Z,31.30
2022-08-09T08:04:01.174Z,30.80
2022-08-09T08:06:31.578Z,30.40
2022-08-09T08:09:04.872Z,31.00
2022-08-09T08:12:24.923Z,31.30
2022-08-09T08:14:21.083Z,31.70
2022-08-09T08:17:00.839Z,32.60
2022-08-09T08:19:35.074Z,33.20
2022-08-09T08:22:02.484Z,33.30
2022-08-09T08:24:34.296Z,33.00
2022-08-09T08:27:17.207Z,32.80
2022-08-09T08:29:49.880Z,32.70
2022-08-09T08:32:24.206Z,32.20
2022-08-09T08:34:58.814Z,32.20
2022-08-09T08:37:41.038Z,31.70
2022-08-09T08:40:15.036Z,31.40
2022-08-09T08:42:47.341Z,30.50
2022-08-09T08:45:16.642Z,28.90
2022-08-09T08:47:45.859Z,28.30
2022-08-09T08:50:18.319Z,28.60
2022-08-09T08:52:52.941Z,29.10
2022-08-09T08:55:27.283Z,29.60
2022-08-09T08:57:57.500Z,30.00
2022-08-09T09:00:30.524Z,30.60
2022-08-09T09:03:11.811Z,28.90
2022-08-09T09:06:00.948Z,28.30
2022-08-09T09:08:38.158Z,28.30
2022-08-09T09:11:08.123Z,28.30
2022-08-09T09:13:55.407Z,27.20
2022-08-09T09:16:30.238Z,27.70
2022-08-09T09:19:29.155Z,28.30
2022-08-09T09:22:14.208Z,26.30
2022-08-09T09:24:45.960Z,27.40
2022-08-09T09:27:22.109Z,27.40
2022-08-09T09:30:40.033Z,27.70
2022-08-09T09:33:15.598Z,27.50
2022-08-09T09:36:02.105Z,28.40
2022-08-09T09:38:39.736Z,27.90
2022-08-09T09:41:09.899Z,26.90
2022-08-09T09:43:41.238Z,26.90
2022-08-09T09:46:42.192Z,27.30
2022-08-09T09:49:12.354Z,27.70
2022-08-09T09:51:41.361Z,27.80
2022-08-09T09:54:19.157Z,27.10
2022-08-09T09:56:53.432Z,28.10
2022-08-09T09:59:36.495Z,28.90
2022-08-09T10:02:03.785Z,28.70
2022-08-09T10:04:31.460Z,28.70
2022-08-09T10:07:03.504Z,29.20
2022-08-09T10:09:48.879Z,29.00
2022-08-09T10:12:31.412Z,29.60
2022-08-09T10:15:17.545Z,29.40
2022-08-09T10:18:11.726Z,28.90
2022-08-09T10:20:44.700Z,28.70
2022-08-09T10:23:17.177Z,29.30
2022-08-09T10:26:07.498Z,29.50
2022-08-09T10:28:35.951Z,29.60
2022-08-09T10:34:10.208Z,30.00
2022-08-09T10:36:38.818Z,30.20
2022-08-09T10:39:14.013Z,30.50
2022-08-09T10:41:47.911Z,29.50
2022-08-09T10:44:22.179Z,29.10
2022-08-09T10:48:20.122Z,29.40
2022-08-09T10:50:26.979Z,29.40
2022-08-09T10:53:19.250Z,29.60
2022-08-09T10:55:54.938Z,30.20
2022-08-09T10:58:35.364Z,30.20
2022-08-09T11:03:03.351Z,29.90
2022-08-09T11:04:19.438Z,29.90
2022-08-09T11:07:01.545Z,29.60
2022-08-09T11:09:38.588Z,28.80
2022-08-09T11:12:17.152Z,29.10
2022-08-09T11:15:18.583Z,29.40
2022-08-09T11:17:48.581Z,28.70
2022-08-09T11:20:45.450Z,29.10
2022-08-09T11:23:13.534Z,29.30
2022-08-09T11:25:47.334Z,29.80
2022-08-09T11:28:38.575Z,30.20
2022-08-09T11:31:49.724Z,30.10
2022-08-09T11:34:52.227Z,30.20
2022-08-09T11:37:27.971Z,29.50
2022-08-09T11:40:07.545Z,29.30
2022-08-09T11:43:01.732Z,29.20
2022-08-09T11:45:43.176Z,29.20
2022-08-09T11:48:25.105Z,29.60
2022-08-09T11:51:19.454Z,29.20
2022-08-09T11:53:58.533Z,28.20
2022-08-09T11:56:42.652Z,28.60
2022-08-09T11:59:30.356Z,27.90
2022-08-09T12:02:34.517Z,29.10
2022-08-09T12:04:51.961Z,29.60
2022-08-09T12:07:41.512Z,29.40
2022-08-09T12:10:14.359Z,28.30
2022-08-09T12:13:00.329Z,27.80
2022-08-09T12:15:50.204Z,28.10
2022-08-09T12:18:29.546Z,28.00
2022-08-09T12:21:00.324Z,28.00
2022-08-09T12:23:56.385Z,28.50
2022-08-09T12:26:19.486Z,28.30
2022-08-09T12:29:13.475Z,28.60
2022-08-09T12:32:01.729Z,28.40
2022-08-09T12:34:41.717Z,29.10
2022-08-09T12:37:24.076Z,29.00
2022-08-09T12:40:10.233Z,29.40
2022-08-09T12:42:42.454Z,29.20
2022-08-09T12:45:35.018Z,29.30
2022-08-09T12:47:56.672Z,29.60
2022-08-09T12:50:25.250Z,30.00
2022-08-09T12:53:08.472Z,29.80
2022-08-09T12:56:11.884Z,30.40
2022-08-09T12:58:24.318Z,30.10
2022-08-09T13:00:55.748Z,30.50
2022-08-09T13:03:53.458Z,30.80
2022-08-09T13:06:35.918Z,30.60
2022-08-09T13:09:12.972Z,30.60
2022-08-09T13:11:45.679Z,29.20
2022-08-09T13:14:41.349Z,29.40
2022-08-09T13:17:16.082Z,29.30
2022-08-09T13:20:08.589Z,29.10
2022-08-09T13:23:02.068Z,29.00
2022-08-09T13:25:19.922Z,29.10
2022-08-09T13:27:54.695Z,28.80
2022-08-09T13:30:51.315Z,28.70
2022-08-09T13:33:21.065Z,28.60
2022-08-09T13:36:38.171Z,28.10
2022-08-09T13:38:55.596Z,28.70
2022-08-09T13:41:59.247Z,29.20
2022-08-09T13:44:16.279Z,29.60
2022-08-09T13:47:29.519Z,29.60
2022-08-09T13:49:37.469Z,28.80
2022-08-09T13:52:08.928Z,28.80
2022-08-09T13:54:43.129Z,29.20
2022-08-09T13:57:36.613Z,29.20
2022-08-09T14:00:12.536Z,28.60
2022-08-09T14:02:42.310Z,28.20
2022-08-09T14:05:58.353Z,29.00
2022-08-09T14:08:17.468Z,29.30
2022-08-09T14:10:49.325Z,29.30
2022-08-09T14:13:27.658Z,28.50
2022-08-09T14:16:09.941Z,27.70
2022-08-09T14:18:37.624Z,28.40
2022-08-09T14:21:05.950Z,28.10
2022-08-09T14:23:40.588Z,28.00
2022-08-09T14:26:21.302Z,28.70
2022-08-09T14:28:48.104Z,28.10
2022-08-09T14:31:15.006Z,27.90
2022-08-09T14:33:42.270Z,28.10
2022-08-09T14:36:20.668Z,28.30
2022-08-09T14:38:52.698Z,29.00
2022-08-09T14:41:34.825Z,29.30
2022-08-09T14:44:07.464Z,29.20
2022-08-09T14:47:03.067Z,28.60
2022-08-09T14:49:26.714Z,28.50
2022-08-09T14:51:58.754Z,28.30
2022-08-09T14:54:27.774Z,28.00
2022-08-09T14:56:59.210Z,28.60
2022-08-09T14:59:29.458Z,28.80
2022-08-09T15:01:57.576Z,28.40
2022-08-09T15:04:25.466Z,28.30
2022-08-09T15:06:52.363Z,28.20
2022-08-09T15:10:03.295Z,28.40
2022-08-09T15:12:09.796Z,28.60
2022-08-09T15:14:39.076Z,28.60
2022-08-09T15:17:09.917Z,28.70
2022-08-09T15:19:59.041Z,28.60
2022-08-09T15:22:25.888Z,28.50
2022-08-09T15:24:53.750Z,27.60
2022-08-09T15:27:21.953Z,27.30
2022-08-09T15:30:59.193Z,27.70
2022-08-09T15:32:35.944Z,28.00
2022-08-09T15:35:18.451Z,27.60
2022-08-09T15:37:56.805Z,27.30
2022-08-09T15:40:37.530Z,27.30
2022-08-09T15:43:13.515Z,27.20
2022-08-09T15:46:07.462Z,27.70
2022-08-09T15:48:30.805Z,28.00
2022-08-09T15:51:01.408Z,28.00
2022-08-09T15:54:05.304Z,28.10
2022-08-09T15:56:29.295Z,28.00
2022-08-09T15:58:58.680Z,28.20
2022-08-09T16:01:26.069Z,27.90
2022-08-09T16:03:52.892Z,27.40
2022-08-09T16:06:34.970Z,27.20
2022-08-09T16:09:04.887Z,27.20
2022-08-09T16:11:33.326Z,27.30
2022-08-09T16:14:03.575Z,27.50
2022-08-09T16:16:34.561Z,27.70
2022-08-09T16:19:04.748Z,27.30
2022-08-09T16:21:35.015Z,27.20
2022-08-09T16:24:04.698Z,27.30
2022-08-09T16:26:34.555Z,27.10
2022-08-09T16:29:11.134Z,26.80
2022-08-09T16:32:18.040Z,26.50
2022-08-09T16:34:29.084Z,26.30
2022-08-09T16:36:56.758Z,26.40
2022-08-09T16:39:25.929Z,26.50
2022-08-09T16:42:04.147Z,26.50
2022-08-09T16:44:32.526Z,26.40
2022-08-09T16:47:03.983Z,26.40
2022-08-09T16:50:31.486Z,26.30
2022-08-09T16:52:34.724Z,26.20
2022-08-09T16:55:02.515Z,26.20
2022-08-09T16:58:08.191Z,26.00
2022-08-09T17:00:17.175Z,25.80
2022-08-09T17:02:46.191Z,25.90
2022-08-09T17:05:14.275Z,25.80
2022-08-09T17:08:46.509Z,25.70
2022-08-09T17:10:33.739Z,25.70
2022-08-09T17:13:01.423Z,25.60
2022-08-09T17:15:59.354Z,25.50
2022-08-09T17:18:15.739Z,25.50
2022-08-09T17:20:54.047Z,25.50
2022-08-09T17:23:20.894Z,25.50
2022-08-09T17:25:52.719Z,25.40
2022-08-09T17:28:20.156Z,25.30
2022-08-09T17:30:47.824Z,25.20
2022-08-09T17:33:22.983Z,25.20
2022-08-09T17:35:50.996Z,25.20
2022-08-09T17:38:29.279Z,25.10
2022-08-09T17:41:02.860Z,25.00
2022-08-09T17:43:35.380Z,25.00
2022-08-09T17:46:09.245Z,24.90
2022-08-09T17:48:39.816Z,24.80
2022-08-09T17:51:17.167Z,24.80
2022-08-09T17:53:51.370Z,24.70
2022-08-09T17:56:35.719Z,24.70
2022-08-09T17:59:11.880Z,24.70
2022-08-09T18:02:06.770Z,24.60
2022-08-09T18:04:30.966Z,24.50
2022-08-09T18:06:58.814Z,24.40
2022-08-09T18:09:40.971Z,24.30
2022-08-09T18:12:17.216Z,24.20
2022-08-09T18:14:53.483Z,24.10
2022-08-09T18:18:02.550Z,24.10
2022-08-09T18:20:59.183Z,24.00
2022-08-09T18:22:56.461Z,23.90
2022-08-09T18:25:52.332Z,23.80
2022-08-09T18:28:21.484Z,23.70
2022-08-09T18:31:00.219Z,23.60
2022-08-09T18:33:28.391Z,23.50
2022-08-09T18:36:00.086Z,23.50
2022-08-09T18:38:27.591Z,23.40
2022-08-09T18:40:55.437Z,23.30
2022-08-09T18:43:23.446Z,23.10
2022-08-09T18:46:51.157Z,23.00
2022-08-09T18:48:38.408Z,22.90
2022-08-09T18:51:09.357Z,22.80
2022-08-09T18:53:59.849Z,22.70
2022-08-09T18:56:27.091Z,22.60
2022-08-09T18:58:56.358Z,22.50
2022-08-09T19:01:23.964Z,22.40
2022-08-09T19:04:01.809Z,22.30
2022-08-09T19:06:34.059Z,22.20
2022-08-09T19:09:02.708Z,22.10
2022-08-09T19:11:38.063Z,21.90
2022-08-09T19:14:06.610Z,21.80
2022-08-09T19:16:36.486Z,21.60
2022-08-09T19:19:25.308Z,21.50
2022-08-09T19:22:05.104Z,21.40
2022-08-09T19:25:09.226Z,21.40
2022-08-09T19:27:22.198Z,21.30
2022-08-09T19:30:25.342Z,21.10
2022-08-09T19:32:36.968Z,21.00
2022-08-09T19:35:04.810Z,20.90
2022-08-09T19:37:40.882Z,20.80
2022-08-09T19:40:19.568Z,20.70
2022-08-09T19:42:49.524Z,20.60
2022-08-09T19:45:16.960Z,20.40
2022-08-09T19:47:44.718Z,20.30
2022-08-09T19:50:50.161Z,20.20
2022-08-09T19:53:04.233Z,20.20
2022-08-09T19:56:03.456Z,20.10
2022-08-09T19:58:29.532Z,19.90
2022-08-09T20:00:57.653Z,19.70
2022-08-09T20:04:25.103Z,19.50
2022-08-09T20:06:23.414Z,19.30
2022-08-09T20:08:56.593Z,19.20
2022-08-09T20:11:26.171Z,19.20
2022-08-09T20:13:54.720Z,19.10
2022-08-09T20:16:34.715Z,19.00
2022-08-09T20:19:47.951Z,19.00
2022-08-09T20:21:56.554Z,18.90
2022-08-09T20:24:29.784Z,18.80
2022-08-09T20:27:05.697Z,18.70
2022-08-09T20:29:37.940Z,18.70
2022-08-09T20:32:29.085Z,18.70
2022-08-09T20:34:56.952Z,18.60
2022-08-09T20:37:24.798Z,18.40
2022-08-09T20:40:16.794Z,18.30
2022-08-09T20:42:38.638Z,18.40
2022-08-09T20:47:54.967Z,18.20
2022-08-09T20:50:47.676Z,18.00
2022-08-09T20:53:18.535Z,17.90
2022-08-09T20:56:00.642Z,17.80
2022-08-09T20:58:32.815Z,17.70
2022-08-09T21:01:32.314Z,17.60
2022-08-09T21:05:49.604Z,17.50
2022-08-09T21:06:41.378Z,17.50
2022-08-09T21:09:11.733Z,17.40
2022-08-09T21:14:27.329Z,17.20
2022-08-09T21:16:59.527Z,17.40
2022-08-09T21:20:04.318Z,17.50
2022-08-09T21:22:37.819Z,17.50
2022-08-09T21:25:38.154Z,17.40
2022-08-09T21:28:07.384Z,17.30
2022-08-09T21:30:40.755Z,17.30
2022-08-09T21:33:08.594Z,17.30
2022-08-09T21:35:39.503Z,17.30
2022-08-09T21:38:19.051Z,17.30
2022-08-09T21:40:58.618Z,17.30
2022-08-09T21:43:56.149Z,17.20
2022-08-09T21:46:12.749Z,17.10
2022-08-09T21:48:42.637Z,17.20
2022-08-09T21:51:24.007Z,17.20
2022-08-09T21:53:54.977Z,17.30
2022-08-09T21:56:42.887Z,17.30
2022-08-09T21:59:09.970Z,17.30
2022-08-09T22:01:45.066Z,17.20
2022-08-09T22:04:33.583Z,17.10
2022-08-09T22:07:12.244Z,17.00
2022-08-09T22:09:50.632Z,16.90
2022-08-09T22:12:24.741Z,16.90
2022-08-09T22:14:58.021Z,16.90
2022-08-09T22:17:25.009Z,16.90
2022-08-09T22:19:59.862Z,16.80
2022-08-09T22:22:29.015Z,16.70
2022-08-09T22:26:04.134Z,16.70
2022-08-09T22:27:42.603Z,16.60
2022-08-09T22:30:10.272Z,16.50
2022-08-09T22:32:37.794Z,16.40
2022-08-09T22:36:01.246Z,16.30
2022-08-09T22:38:06.669Z,16.20
2022-08-09T22:40:35.149Z,16.30
2022-08-09T22:43:15.960Z,16.20
2022-08-09T22:48:14.263Z,16.10
2022-08-09T22:48:35.446Z,16.10
2022-08-09T22:51:10.297Z,16.00
2022-08-09T22:53:44.327Z,15.90
2022-08-09T22:56:33.356Z,15.80
2022-08-09T22:59:06.063Z,15.80
2022-08-09T23:01:49.429Z,15.80
2022-08-09T23:04:17.219Z,15.70
2022-08-09T23:07:03.351Z,15.70
2022-08-09T23:09:38.613Z,15.70
2022-08-09T23:12:06.584Z,15.80
2022-08-09T23:14:42.411Z,15.80
2022-08-09T23:17:10.805Z,15.70
2022-08-09T23:20:00.643Z,15.80
2022-08-09T23:22:24.955Z,16.00
2022-08-09T23:24:51.725Z,15.90
2022-08-09T23:27:18.823Z,15.90
2022-08-09T23:29:45.808Z,15.80
2022-08-09T23:32:13.098Z,15.70
2022-08-09T23:34:40.322Z,15.70
2022-08-09T23:37:07.406Z,15.50
2022-08-09T23:39:34.252Z,15.50
2022-08-09T23:42:01.033Z,15.40
2022-08-09T23:44:27.923Z,15.30
2022-08-09T23:46:57.643Z,15.30
2022-08-09T23:49:25.750Z,15.30
2022-08-09T23:51:53.917Z,15.40
2022-08-09T23:54:26.492Z,15.40
2022-08-09T23:56:56.414Z,15.40
2022-08-09T23:59:25.612Z,15.30
